createdAt,value
2023-05-16T00:01:38.121Z,10.20
2023-05-16T00:04:05.585Z,11.13
2023-05-16T00:06:33.389Z,10.98
2023-05-16T00:09:00.901Z,12.77
2023-05-16T00:11:30.223Z,12.60
2023-05-16T00:13:57.715Z,39.55
2023-05-16T00:16:29.692Z,24.00
2023-05-16T00:19:01.268Z,21.10
2023-05-16T00:21:28.886Z,13.73
2023-05-16T00:23:56.216Z,12.82
2023-05-16T00:26:23.831Z,12.18
2023-05-16T00:28:51.235Z,11.65
2023-05-16T00:31:19.749Z,12.25
2023-05-16T00:33:47.148Z,16.25
2023-05-16T00:36:14.556Z,13.88
2023-05-16T00:38:42.176Z,13.15
2023-05-16T00:41:09.458Z,13.48
2023-05-16T00:43:36.929Z,13.32
2023-05-16T00:46:04.404Z,13.45
2023-05-16T00:48:33.050Z,13.88
2023-05-16T00:51:01.586Z,12.63
2023-05-16T00:53:30.982Z,13.13
2023-05-16T00:55:58.792Z,13.45
2023-05-16T00:58:26.841Z,14.27
2023-05-16T01:03:29.764Z,14.05
2023-05-16T01:05:58.378Z,15.02
2023-05-16T01:08:25.639Z,15.27
2023-05-16T01:11:20.346Z,14.60
2023-05-16T01:14:01.302Z,14.55
2023-05-16T01:16:37.942Z,13.13
2023-05-16T01:19:09.210Z,13.40
2023-05-16T01:22:07.088Z,12.48
2023-05-16T01:24:45.075Z,12.98
2023-05-16T01:27:14.926Z,12.75
2023-05-16T01:29:44.105Z,17.05
2023-05-16T01:32:11.586Z,15.70
2023-05-16T01:34:39.018Z,42.15
2023-05-16T01:37:24.926Z,18.67
2023-05-16T01:40:01.924Z,15.43
2023-05-16T01:42:35.498Z,18.23
2023-05-16T01:45:27.328Z,91.53
2023-05-16T01:48:20.532Z,69.45
2023-05-16T01:50:54.743Z,15.15
2023-05-16T01:53:39.061Z,16.33
2023-05-16T01:56:11.602Z,20.63
2023-05-16T01:58:39.603Z,17.15
2023-05-16T02:01:08.553Z,17.23
2023-05-16T02:03:36.211Z,18.35
2023-05-16T02:06:05.235Z,17.10
2023-05-16T02:08:32.684Z,20.05
2023-05-16T02:10:59.999Z,19.58
2023-05-16T02:13:27.368Z,20.55
2023-05-16T02:15:54.872Z,17.40
2023-05-16T02:18:23.933Z,15.77
2023-05-16T02:20:52.585Z,17.98
2023-05-16T02:23:19.808Z,16.95
2023-05-16T02:25:47.171Z,19.10
2023-05-16T02:28:14.692Z,17.92
2023-05-16T02:30:42.385Z,16.05
2023-05-16T02:33:11.394Z,18.73
2023-05-16T02:35:44.927Z,16.20
2023-05-16T02:38:17.678Z,18.60
2023-05-16T02:40:45.370Z,19.00
2023-05-16T02:43:12.678Z,17.88
2023-05-16T02:45:40.142Z,19.55
2023-05-16T02:48:07.905Z,19.33
2023-05-16T02:50:35.395Z,18.42
2023-05-16T02:53:02.660Z,17.02
2023-05-16T02:55:30.076Z,16.83
2023-05-16T02:57:58.605Z,16.13
2023-05-16T03:00:32.093Z,14.15
2023-05-16T03:02:59.742Z,14.90
2023-05-16T03:05:27.425Z,16.27
2023-05-16T03:07:55.045Z,16.83
2023-05-16T03:10:22.487Z,31.30
2023-05-16T03:12:52.145Z,20.83
2023-05-16T03:15:21.825Z,22.52
2023-05-16T03:17:49.651Z,18.75
2023-05-16T03:20:16.836Z,15.85
2023-05-16T03:22:45.557Z,16.65
2023-05-16T03:25:12.816Z,22.88
2023-05-16T03:27:40.260Z,36.00
2023-05-16T03:30:09.584Z,22.63
2023-05-16T03:32:38.964Z,20.88
2023-05-16T03:35:06.397Z,20.83
2023-05-16T03:37:40.821Z,22.52
2023-05-16T03:40:09.722Z,23.80
2023-05-16T03:42:37.324Z,19.42
2023-05-16T03:45:08.558Z,16.77
2023-05-16T03:47:36.851Z,15.85
2023-05-16T03:50:07.071Z,17.45
2023-05-16T03:52:35.213Z,16.63
2023-05-16T03:55:04.266Z,17.88
2023-05-16T03:57:32.898Z,17.88
2023-05-16T04:00:04.021Z,18.88
2023-05-16T04:02:31.343Z,19.48
2023-05-16T04:04:59.312Z,18.35
2023-05-16T04:07:27.938Z,18.95
2023-05-16T04:09:59.024Z,19.48
2023-05-16T04:12:26.178Z,19.63
2023-05-16T04:14:53.960Z,21.77
2023-05-16T04:17:23.480Z,19.15
2023-05-16T04:19:50.803Z,19.67
2023-05-16T04:22:24.574Z,18.48
2023-05-16T04:24:53.012Z,18.77
2023-05-16T04:27:20.188Z,17.27
2023-05-16T04:29:47.616Z,17.02
2023-05-16T04:32:15.569Z,17.05
2023-05-16T04:34:44.548Z,16.83
2023-05-16T04:37:14.580Z,16.58
2023-05-16T04:39:42.943Z,16.60
2023-05-16T04:42:10.232Z,15.32
2023-05-16T04:44:37.742Z,16.30
2023-05-16T04:47:05.108Z,16.13
2023-05-16T04:49:33.416Z,15.77
2023-05-16T04:52:01.003Z,17.95
2023-05-16T04:54:34.811Z,17.95
2023-05-16T04:59:30.943Z,16.02
2023-05-16T05:01:58.243Z,14.65
2023-05-16T05:04:26.350Z,14.75
2023-05-16T05:06:54.859Z,14.32
2023-05-16T05:09:22.352Z,15.23
2023-05-16T05:11:49.792Z,15.02
2023-05-16T05:14:17.156Z,17.58
2023-05-16T05:16:44.652Z,15.43
2023-05-16T05:19:18.854Z,14.40
2023-05-16T05:21:46.313Z,13.85
2023-05-16T05:24:13.653Z,14.68
2023-05-16T05:26:41.352Z,14.27
2023-05-16T05:29:08.977Z,13.75
2023-05-16T05:31:36.678Z,14.98
2023-05-16T05:34:04.298Z,14.25
2023-05-16T05:36:33.517Z,12.98
2023-05-16T05:39:01.003Z,12.45
2023-05-16T05:41:28.675Z,12.07
2023-05-16T05:43:56.899Z,12.23
2023-05-16T05:46:25.486Z,12.70
2023-05-16T05:48:55.092Z,12.75
2023-05-16T05:51:28.808Z,10.98
2023-05-16T05:56:25.063Z,11.23
2023-05-16T05:58:52.512Z,10.23
2023-05-16T06:01:21.506Z,10.68
2023-05-16T06:03:52.075Z,9.82
2023-05-16T06:06:20.404Z,8.52
2023-05-16T06:08:49.087Z,9.05
2023-05-16T06:11:17.287Z,9.10
2023-05-16T06:13:44.824Z,8.60
2023-05-16T06:16:13.382Z,8.90
2023-05-16T06:18:41.850Z,8.05
2023-05-16T06:21:09.426Z,8.40
2023-05-16T06:23:37.052Z,6.93
2023-05-16T06:26:04.795Z,8.73
2023-05-16T06:28:32.128Z,7.63
2023-05-16T06:30:59.660Z,8.48
2023-05-16T06:33:27.098Z,7.82
2023-05-16T06:35:54.499Z,7.53
2023-05-16T06:38:22.147Z,6.95
2023-05-16T06:40:49.570Z,8.35
2023-05-16T06:43:16.951Z,8.35
2023-05-16T06:45:56.894Z,7.97
2023-05-16T06:48:24.282Z,7.60
2023-05-16T06:50:52.519Z,8.52
2023-05-16T06:53:21.187Z,8.35
2023-05-16T06:55:50.714Z,8.82
2023-05-16T06:58:18.058Z,8.75
2023-05-16T07:00:46.911Z,8.35
2023-05-16T07:03:14.136Z,8.70
2023-05-16T07:05:43.489Z,8.80
2023-05-16T07:08:12.530Z,9.18
2023-05-16T07:10:42.062Z,9.40
2023-05-16T07:13:09.404Z,9.63
2023-05-16T07:15:37.041Z,9.32
2023-05-16T07:18:05.422Z,9.07
2023-05-16T07:20:32.898Z,9.90
2023-05-16T07:23:00.317Z,10.10
2023-05-16T07:25:28.173Z,10.48
2023-05-16T07:27:57.675Z,10.40
2023-05-16T07:30:25.318Z,9.95
2023-05-16T07:32:52.769Z,9.35
2023-05-16T07:35:20.172Z,9.63
2023-05-16T07:37:48.027Z,9.23
2023-05-16T07:40:15.693Z,9.77
2023-05-16T07:42:43.185Z,10.50
2023-05-16T07:45:16.594Z,10.00
2023-05-16T07:47:45.112Z,10.45
2023-05-16T07:50:12.639Z,9.48
2023-05-16T07:52:47.198Z,9.02
2023-05-16T07:55:15.698Z,9.63
2023-05-16T07:57:44.432Z,10.70
2023-05-16T08:00:12.437Z,10.32
2023-05-16T08:02:40.060Z,9.80
2023-05-16T08:05:10.016Z,9.30
2023-05-16T08:07:37.557Z,11.32
2023-05-16T08:10:05.605Z,11.18
2023-05-16T08:12:32.982Z,12.35
2023-05-16T08:15:00.345Z,10.48
2023-05-16T08:17:27.871Z,9.75
2023-05-16T08:19:55.330Z,11.55
2023-05-16T08:22:22.820Z,13.05
2023-05-16T08:24:51.485Z,13.68
2023-05-16T08:27:18.870Z,12.68
2023-05-16T08:29:46.140Z,13.05
2023-05-16T08:32:15.163Z,12.77
2023-05-16T08:34:42.746Z,12.57
2023-05-16T08:37:11.084Z,12.43
2023-05-16T08:39:41.742Z,12.98
2023-05-16T08:42:11.382Z,13.38
2023-05-16T08:44:38.704Z,13.85
2023-05-16T08:47:16.770Z,12.90
2023-05-16T08:49:44.813Z,12.65
2023-05-16T08:52:19.181Z,12.43
2023-05-16T08:55:05.679Z,13.98
2023-05-16T08:57:38.189Z,13.02
2023-05-16T09:00:12.628Z,12.43
2023-05-16T09:02:44.862Z,13.30
2023-05-16T09:05:14.996Z,14.10
2023-05-16T09:07:43.902Z,13.82
2023-05-16T09:10:12.556Z,13.07
2023-05-16T09:12:41.268Z,13.45
2023-05-16T09:15:10.055Z,14.05
2023-05-16T09:17:47.062Z,13.95
2023-05-16T09:20:20.117Z,11.98
2023-05-16T09:22:56.271Z,14.90
2023-05-16T09:25:30.833Z,14.00
2023-05-16T09:28:03.109Z,14.20
2023-05-16T09:30:34.850Z,13.73
2023-05-16T09:33:03.232Z,11.68
2023-05-16T09:38:03.315Z,12.85
2023-05-16T09:40:42.093Z,11.55
2023-05-16T09:43:14.912Z,13.32
2023-05-16T09:45:48.195Z,13.77
2023-05-16T09:48:17.211Z,13.60
2023-05-16T09:50:55.369Z,12.20
2023-05-16T09:53:28.079Z,10.65
2023-05-16T09:56:24.885Z,9.73
2023-05-16T09:58:52.864Z,11.00
2023-05-16T10:01:21.354Z,11.02
2023-05-16T10:03:49.291Z,9.82
2023-05-16T10:06:18.884Z,9.75
2023-05-16T10:08:47.108Z,8.57
2023-05-16T10:11:15.873Z,8.73
2023-05-16T10:13:50.809Z,8.80
2023-05-16T10:16:19.394Z,10.57
2023-05-16T10:18:47.280Z,9.10
2023-05-16T10:21:18.402Z,9.05
2023-05-16T10:23:50.406Z,9.15
2023-05-16T10:26:21.779Z,8.95
2023-05-16T10:28:49.939Z,9.55
2023-05-16T10:31:18.535Z,9.70
2023-05-16T10:33:47.870Z,7.75
2023-05-16T10:36:18.779Z,7.60
2023-05-16T10:38:48.242Z,8.77
2023-05-16T10:41:17.687Z,9.35
2023-05-16T10:44:00.577Z,9.02
2023-05-16T10:46:29.768Z,9.32
2023-05-16T10:48:58.743Z,9.45
2023-05-16T10:51:39.288Z,8.35
2023-05-16T10:54:15.935Z,9.07
2023-05-16T10:56:43.739Z,9.25
2023-05-16T10:59:25.416Z,8.98
2023-05-16T11:01:57.430Z,9.25
2023-05-16T11:04:52.110Z,10.80
2023-05-16T11:07:21.381Z,9.20
2023-05-16T11:10:17.776Z,9.05
2023-05-16T11:12:55.453Z,9.43
2023-05-16T11:15:25.855Z,8.77
2023-05-16T11:18:17.193Z,8.82
2023-05-16T11:20:44.690Z,8.50
2023-05-16T11:23:23.130Z,8.02
2023-05-16T11:25:54.586Z,8.40
2023-05-16T11:28:23.132Z,7.40
2023-05-16T11:31:00.369Z,8.43
2023-05-16T11:33:34.757Z,8.50
2023-05-16T11:36:15.092Z,8.73
2023-05-16T11:38:44.237Z,7.40
2023-05-16T11:41:12.712Z,8.13
2023-05-16T11:43:45.670Z,7.57
2023-05-16T11:46:17.348Z,7.57
2023-05-16T11:48:47.670Z,7.70
2023-05-16T11:51:19.261Z,7.65
2023-05-16T11:53:52.453Z,7.75
2023-05-16T11:56:22.564Z,8.93
2023-05-16T11:58:51.093Z,8.43
2023-05-16T12:01:18.930Z,8.48
2023-05-16T12:03:55.233Z,8.15
2023-05-16T12:06:22.857Z,7.68
2023-05-16T12:08:53.855Z,6.70
2023-05-16T12:11:24.000Z,8.70
2023-05-16T12:13:51.573Z,8.23
2023-05-16T12:16:19.085Z,8.40
2023-05-16T12:18:46.594Z,8.90
2023-05-16T12:21:14.353Z,8.40
2023-05-16T12:23:43.259Z,7.70
2023-05-16T12:26:10.661Z,8.80
2023-05-16T12:28:44.869Z,8.10
2023-05-16T12:31:31.092Z,7.20
2023-05-16T12:34:01.731Z,8.50
2023-05-16T12:36:37.978Z,8.35
2023-05-16T12:39:14.141Z,8.60
2023-05-16T12:41:46.194Z,8.68
2023-05-16T12:44:19.997Z,8.23
2023-05-16T12:46:52.373Z,7.20
2023-05-16T12:49:23.139Z,6.68
2023-05-16T12:51:53.581Z,6.30
2023-05-16T12:54:25.876Z,6.28
2023-05-16T12:56:53.418Z,6.22
2023-05-16T12:59:20.916Z,6.60
2023-05-16T13:01:48.223Z,6.30
2023-05-16T13:04:19.551Z,6.55
2023-05-16T13:09:19.164Z,5.88
2023-05-16T13:11:46.347Z,6.32
2023-05-16T13:14:13.772Z,6.40
2023-05-16T13:16:41.336Z,6.28
2023-05-16T13:19:08.664Z,5.97
2023-05-16T13:21:36.357Z,5.70
2023-05-16T13:24:04.905Z,5.45
2023-05-16T13:26:32.104Z,5.82
2023-05-16T13:28:59.628Z,5.40
2023-05-16T13:31:35.454Z,6.28
2023-05-16T13:34:02.647Z,6.00
2023-05-16T13:36:38.314Z,6.15
2023-05-16T13:39:18.803Z,6.10
2023-05-16T13:41:47.323Z,6.85
2023-05-16T13:44:16.516Z,6.05
2023-05-16T13:46:44.218Z,7.75
2023-05-16T13:49:12.496Z,7.05
2023-05-16T13:51:39.909Z,7.32
2023-05-16T13:54:08.383Z,6.57
2023-05-16T13:56:35.936Z,7.97
2023-05-16T13:59:06.868Z,6.20
2023-05-16T14:01:38.084Z,5.90
2023-05-16T14:04:06.781Z,6.72
2023-05-16T14:06:40.291Z,7.55
2023-05-16T14:09:11.135Z,8.50
2023-05-16T14:11:38.722Z,10.13
2023-05-16T14:14:07.338Z,8.85
2023-05-16T14:16:34.711Z,6.80
2023-05-16T14:19:07.798Z,7.38
2023-05-16T14:21:35.352Z,7.88
2023-05-16T14:24:08.977Z,8.55
2023-05-16T14:26:36.354Z,8.88
2023-05-16T14:29:03.839Z,8.80
2023-05-16T14:31:33.708Z,9.25
2023-05-16T14:34:01.232Z,8.00
2023-05-16T14:36:35.848Z,9.98
2023-05-16T14:39:03.347Z,11.07
2023-05-16T14:41:30.818Z,9.48
2023-05-16T14:43:58.253Z,19.95
2023-05-16T14:46:26.884Z,21.85
2023-05-16T14:48:54.173Z,24.90
2023-05-16T14:51:22.809Z,26.50
2023-05-16T14:53:50.270Z,32.90
2023-05-16T14:56:17.558Z,34.33
2023-05-16T14:58:45.305Z,35.67
2023-05-16T15:01:12.613Z,39.25
2023-05-16T15:06:12.176Z,37.85
2023-05-16T15:08:39.754Z,36.92
2023-05-16T15:11:07.061Z,40.20
2023-05-16T15:13:35.654Z,39.53
2023-05-16T15:16:03.094Z,41.58
2023-05-16T15:18:30.557Z,42.40
2023-05-16T15:20:58.010Z,42.55
2023-05-16T15:23:25.396Z,46.13
2023-05-16T15:25:53.349Z,45.10
2023-05-16T15:28:22.546Z,43.30
2023-05-16T15:30:52.127Z,45.03
2023-05-16T15:33:25.585Z,46.45
2023-05-16T15:35:53.952Z,46.40
2023-05-16T15:38:22.660Z,44.63
2023-05-16T15:40:58.060Z,42.50
2023-05-16T15:43:39.526Z,39.53
2023-05-16T15:46:08.781Z,43.22
2023-05-16T15:48:36.144Z,44.85
2023-05-16T15:51:04.803Z,46.47
2023-05-16T15:53:38.754Z,43.47
2023-05-16T15:56:07.516Z,45.05
2023-05-16T15:58:35.289Z,43.95
2023-05-16T16:01:03.048Z,49.75
2023-05-16T16:03:36.751Z,48.25
2023-05-16T16:08:31.595Z,44.28
2023-05-16T16:10:59.150Z,47.40
2023-05-16T16:13:26.456Z,57.17
2023-05-16T16:15:56.127Z,44.88
2023-05-16T16:18:23.785Z,48.13
2023-05-16T16:20:53.566Z,46.90
2023-05-16T16:23:21.965Z,46.92
2023-05-16T16:25:49.734Z,43.50
2023-05-16T16:28:17.089Z,43.70
2023-05-16T16:30:47.623Z,43.13
2023-05-16T16:33:14.940Z,44.28
2023-05-16T16:35:42.693Z,45.35
2023-05-16T16:38:09.966Z,43.47
2023-05-16T16:40:38.500Z,43.08
2023-05-16T16:43:06.677Z,41.67
2023-05-16T16:45:34.258Z,42.20
2023-05-16T16:48:04.002Z,39.90
2023-05-16T16:50:33.353Z,40.78
2023-05-16T16:53:02.308Z,41.78
2023-05-16T16:55:29.975Z,40.67
2023-05-16T16:57:59.823Z,40.45
2023-05-16T17:00:27.746Z,44.45
2023-05-16T17:02:54.972Z,44.92
2023-05-16T17:05:22.741Z,43.67
2023-05-16T17:07:50.744Z,48.25
2023-05-16T17:10:18.817Z,43.25
2023-05-16T17:12:52.609Z,46.08
2023-05-16T17:17:49.722Z,43.50
2023-05-16T17:20:23.332Z,44.35
2023-05-16T17:22:50.748Z,41.50
2023-05-16T17:25:18.167Z,42.13
2023-05-16T17:27:49.036Z,42.53
2023-05-16T17:30:18.788Z,41.92
2023-05-16T17:32:47.044Z,40.60
2023-05-16T17:35:14.668Z,39.97
2023-05-16T17:37:44.315Z,40.90
2023-05-16T17:40:17.236Z,40.50
2023-05-16T17:42:48.959Z,37.90
2023-05-16T17:45:18.572Z,38.53
2023-05-16T17:47:45.846Z,36.80
2023-05-16T17:50:13.774Z,37.45
2023-05-16T17:52:43.268Z,38.90
2023-05-16T17:55:10.990Z,36.42
2023-05-16T17:57:39.896Z,36.55
2023-05-16T18:00:09.717Z,34.03
2023-05-16T18:02:38.767Z,34.28
2023-05-16T18:05:07.313Z,33.65
2023-05-16T18:07:36.065Z,35.25
2023-05-16T18:10:04.505Z,33.00
2023-05-16T18:12:32.658Z,32.80
2023-05-16T18:15:00.426Z,30.70
2023-05-16T18:17:28.245Z,30.75
2023-05-16T18:19:56.259Z,31.42
2023-05-16T18:22:24.157Z,30.27
2023-05-16T18:24:51.531Z,31.27
2023-05-16T18:27:19.341Z,32.78
2023-05-16T18:29:53.896Z,35.22
2023-05-16T18:32:22.540Z,38.30
2023-05-16T18:34:51.063Z,39.63
2023-05-16T18:37:18.841Z,37.03
2023-05-16T18:39:48.869Z,39.45
2023-05-16T18:42:17.920Z,40.60
2023-05-16T18:44:46.821Z,39.30
2023-05-16T18:47:16.557Z,39.17
2023-05-16T18:49:45.326Z,40.55
2023-05-16T18:52:12.944Z,41.67
2023-05-16T18:54:40.558Z,40.08
2023-05-16T18:57:10.710Z,41.45
2023-05-16T18:59:38.706Z,40.70
2023-05-16T19:02:06.283Z,39.72
2023-05-16T19:04:34.359Z,38.38
2023-05-16T19:07:04.516Z,38.50
2023-05-16T19:09:33.758Z,37.83
2023-05-16T19:12:02.897Z,37.15
2023-05-16T19:14:34.025Z,38.33
2023-05-16T19:17:01.741Z,36.20
2023-05-16T19:19:30.301Z,37.85
2023-05-16T19:21:58.419Z,38.22
2023-05-16T19:24:27.624Z,34.70
2023-05-16T19:26:57.245Z,34.25
2023-05-16T19:29:25.375Z,35.08
2023-05-16T19:31:53.681Z,36.03
2023-05-16T19:34:21.991Z,34.88
2023-05-16T19:36:52.297Z,35.25
2023-05-16T19:39:20.114Z,33.65
2023-05-16T19:41:51.653Z,33.22
2023-05-16T19:44:19.683Z,29.42
2023-05-16T19:46:48.431Z,27.73
2023-05-16T19:49:26.674Z,28.70
2023-05-16T19:51:54.385Z,31.98
2023-05-16T19:54:26.954Z,32.78
2023-05-16T19:56:54.435Z,35.28
2023-05-16T19:59:23.444Z,34.83
2023-05-16T20:01:50.904Z,34.03
2023-05-16T20:04:18.418Z,33.38
2023-05-16T20:06:45.776Z,34.78
2023-05-16T20:09:15.014Z,34.08
2023-05-16T20:11:42.249Z,34.80
2023-05-16T20:14:10.864Z,37.67
2023-05-16T20:16:38.419Z,40.63
2023-05-16T20:19:07.477Z,39.10
2023-05-16T20:21:35.165Z,42.13
2023-05-16T20:24:02.615Z,42.45
2023-05-16T20:26:30.929Z,41.50
2023-05-16T20:28:58.518Z,42.58
2023-05-16T20:31:25.987Z,41.78
2023-05-16T20:33:55.514Z,41.33
2023-05-16T20:36:22.963Z,42.75
2023-05-16T20:38:51.139Z,42.13
2023-05-16T20:41:18.413Z,41.95
2023-05-16T20:43:47.138Z,40.95
2023-05-16T20:46:14.771Z,43.22
2023-05-16T20:48:41.882Z,43.22
2023-05-16T20:51:11.196Z,44.08
2023-05-16T20:53:38.344Z,43.75
2023-05-16T20:56:06.623Z,45.08
2023-05-16T20:58:34.148Z,44.17
2023-05-16T21:01:02.489Z,44.65
2023-05-16T21:03:29.985Z,43.58
2023-05-16T21:05:58.630Z,43.92
2023-05-16T21:08:32.012Z,43.28
2023-05-16T21:10:59.478Z,42.53
2023-05-16T21:13:27.067Z,42.10
2023-05-16T21:15:54.463Z,42.17
2023-05-16T21:18:22.032Z,41.85
2023-05-16T21:20:50.417Z,40.58
2023-05-16T21:23:17.929Z,41.95
2023-05-16T21:25:45.383Z,42.20
2023-05-16T21:28:13.794Z,41.90
2023-05-16T21:30:42.311Z,39.28
2023-05-16T21:33:10.830Z,38.25
2023-05-16T21:35:38.321Z,38.30
2023-05-16T21:38:05.785Z,37.65
2023-05-16T21:40:33.275Z,36.55
2023-05-16T21:43:01.566Z,36.00
2023-05-16T21:45:29.320Z,34.47
2023-05-16T21:47:58.162Z,34.95
2023-05-16T21:50:25.617Z,33.03
2023-05-16T21:52:53.073Z,33.65
2023-05-16T21:55:20.448Z,30.88
2023-05-16T21:57:48.935Z,31.70
2023-05-16T22:00:17.035Z,30.00
2023-05-16T22:02:44.472Z,30.45
2023-05-16T22:05:19.764Z,29.30
2023-05-16T22:07:50.529Z,28.48
2023-05-16T22:10:19.023Z,27.90
2023-05-16T22:12:46.477Z,27.38
2023-05-16T22:15:13.816Z,27.88
2023-05-16T22:17:42.084Z,27.67
2023-05-16T22:20:17.667Z,27.10
2023-05-16T22:22:45.251Z,27.30
2023-05-16T22:25:13.647Z,27.30
2023-05-16T22:27:40.991Z,26.02
2023-05-16T22:30:08.961Z,25.83
2023-05-16T22:32:38.582Z,26.17
2023-05-16T22:35:06.335Z,24.83
2023-05-16T22:37:33.933Z,26.15
2023-05-16T22:40:02.357Z,26.15
2023-05-16T22:42:31.559Z,26.35
2023-05-16T22:45:00.917Z,26.02
2023-05-16T22:47:29.118Z,25.98
2023-05-16T22:49:56.365Z,26.75
2023-05-16T22:53:09.932Z,26.73
2023-05-16T22:55:37.324Z,24.83
2023-05-16T22:58:05.080Z,25.05
2023-05-16T23:00:32.267Z,25.75
2023-05-16T23:02:59.464Z,25.30
2023-05-16T23:05:28.066Z,23.92
2023-05-16T23:07:55.851Z,24.45
2023-05-16T23:10:30.857Z,22.63
2023-05-16T23:12:59.268Z,23.35
2023-05-16T23:15:26.993Z,22.17
2023-05-16T23:17:54.781Z,21.77
2023-05-16T23:20:22.806Z,20.95
2023-05-16T23:22:50.082Z,21.48
2023-05-16T23:25:20.638Z,20.38
2023-05-16T23:27:48.287Z,20.00
2023-05-16T23:30:17.339Z,21.95
2023-05-16T23:32:44.519Z,21.92
2023-05-16T23:35:14.071Z,22.83
2023-05-16T23:37:43.691Z,22.83
2023-05-16T23:40:11.262Z,22.45
2023-05-16T23:42:43.187Z,24.05
2023-05-16T23:45:10.869Z,24.42
2023-05-16T23:47:39.049Z,23.77
2023-05-16T23:50:06.862Z,24.40
2023-05-16T23:52:35.464Z,24.02
2023-05-16T23:55:04.295Z,25.55
2023-05-16T23:57:31.972Z,24.23
